createdAt,value
2023-07-24T00:00:30.780Z,2.85
2023-07-24T00:02:58.027Z,2.55
2023-07-24T00:05:25.016Z,2.90
2023-07-24T00:07:52.231Z,3.08
2023-07-24T00:10:19.098Z,2.88
2023-07-24T00:12:45.904Z,2.20
2023-07-24T00:15:12.769Z,2.45
2023-07-24T00:17:39.857Z,2.10
2023-07-24T00:20:07.691Z,2.33
2023-07-24T00:22:34.638Z,2.58
2023-07-24T00:25:01.590Z,2.05
2023-07-24T00:27:28.826Z,2.53
2023-07-24T00:29:55.696Z,2.10
2023-07-24T00:32:23.089Z,2.15
2023-07-24T00:34:49.796Z,2.15
2023-07-24T00:37:17.624Z,2.40
2023-07-24T00:39:44.573Z,2.33
2023-07-24T00:42:11.731Z,1.80
2023-07-24T00:44:38.943Z,2.08
2023-07-24T00:47:06.118Z,1.90
2023-07-24T00:49:33.095Z,1.92
2023-07-24T00:52:00.227Z,1.80
2023-07-24T00:54:28.040Z,2.10
2023-07-24T00:56:54.851Z,2.03
2023-07-24T00:59:22.094Z,2.00
2023-07-24T01:01:48.915Z,1.90
2023-07-24T01:04:16.170Z,1.38
2023-07-24T01:06:42.893Z,1.50
2023-07-24T01:09:09.687Z,2.03
2023-07-24T01:11:48.841Z,1.80
2023-07-24T01:14:24.802Z,1.45
2023-07-24T01:19:22.215Z,1.65
2023-07-24T01:22:04.541Z,1.80
2023-07-24T01:24:37.717Z,1.70
2023-07-24T01:27:04.824Z,1.52
2023-07-24T01:29:32.455Z,1.52
2023-07-24T01:31:59.384Z,1.67
2023-07-24T01:34:26.387Z,1.73
2023-07-24T01:36:53.746Z,1.38
2023-07-24T01:39:22.025Z,1.73
2023-07-24T01:41:48.945Z,1.42
2023-07-24T01:44:15.838Z,1.50
2023-07-24T01:46:42.940Z,1.38
2023-07-24T01:49:09.845Z,1.80
2023-07-24T01:51:36.599Z,1.75
2023-07-24T01:54:03.800Z,2.05
2023-07-24T01:56:30.940Z,2.05
2023-07-24T01:58:58.130Z,1.27
2023-07-24T02:01:25.014Z,1.70
2023-07-24T02:03:52.078Z,1.83
2023-07-24T02:06:19.072Z,1.83
2023-07-24T02:08:49.931Z,1.65
2023-07-24T02:11:17.522Z,1.90
2023-07-24T02:13:45.320Z,1.92
2023-07-24T02:16:15.017Z,1.85
2023-07-24T02:18:43.002Z,1.55
2023-07-24T02:21:10.233Z,1.55
2023-07-24T02:23:37.316Z,2.00
2023-07-24T02:26:05.695Z,1.60
2023-07-24T02:28:35.109Z,1.80
2023-07-24T02:31:02.302Z,1.63
2023-07-24T02:33:29.471Z,2.05
2023-07-24T02:35:57.311Z,1.75
2023-07-24T02:38:24.189Z,2.00
2023-07-24T02:40:51.038Z,2.20
2023-07-24T02:43:17.823Z,1.90
2023-07-24T02:45:44.587Z,2.03
2023-07-24T02:48:11.440Z,1.85
2023-07-24T02:50:38.303Z,1.88
2023-07-24T02:53:05.562Z,2.60
2023-07-24T02:55:32.441Z,2.28
2023-07-24T02:57:59.464Z,2.45
2023-07-24T03:00:26.350Z,2.05
2023-07-24T03:02:54.057Z,2.53
2023-07-24T03:05:21.109Z,2.20
2023-07-24T03:07:47.943Z,2.10
2023-07-24T03:10:14.951Z,2.58
2023-07-24T03:12:41.921Z,2.47
2023-07-24T03:15:09.029Z,2.50
2023-07-24T03:17:36.204Z,2.95
2023-07-24T03:20:14.872Z,2.50
2023-07-24T03:22:42.732Z,2.10
2023-07-24T03:25:09.608Z,2.85
2023-07-24T03:27:36.570Z,2.63
2023-07-24T03:30:04.572Z,2.80
2023-07-24T03:32:31.578Z,2.80
2023-07-24T03:34:58.461Z,2.70
2023-07-24T03:37:25.510Z,3.20
2023-07-24T03:39:54.136Z,3.00
2023-07-24T03:42:27.940Z,3.28
2023-07-24T03:44:55.506Z,3.75
2023-07-24T03:47:22.572Z,3.60
2023-07-24T03:49:49.755Z,3.90
2023-07-24T03:52:16.933Z,3.80
2023-07-24T03:54:43.999Z,4.30
2023-07-24T03:57:11.043Z,4.38
2023-07-24T03:59:37.976Z,4.20
2023-07-24T04:02:04.973Z,3.60
2023-07-24T04:04:32.561Z,3.63
2023-07-24T04:06:59.562Z,3.75
2023-07-24T04:09:26.350Z,3.38
2023-07-24T04:11:53.352Z,4.03
2023-07-24T04:14:20.536Z,3.88
2023-07-24T04:16:47.420Z,3.72
2023-07-24T04:19:14.488Z,3.60
2023-07-24T04:21:41.282Z,4.30
2023-07-24T04:24:08.030Z,3.97
2023-07-24T04:26:36.886Z,3.75
2023-07-24T04:29:04.992Z,3.83
2023-07-24T04:31:32.034Z,4.55
2023-07-24T04:33:58.895Z,4.40
2023-07-24T04:36:25.673Z,4.25
2023-07-24T04:38:52.437Z,4.57
2023-07-24T04:41:19.333Z,4.18
2023-07-24T04:43:46.206Z,4.30
2023-07-24T04:46:12.986Z,5.38
2023-07-24T04:48:39.965Z,5.35
2023-07-24T04:51:07.017Z,4.95
2023-07-24T04:53:34.162Z,5.38
2023-07-24T04:56:00.911Z,5.93
2023-07-24T04:58:27.759Z,4.55
2023-07-24T05:00:54.673Z,5.53
2023-07-24T05:03:21.955Z,6.15
2023-07-24T05:05:49.570Z,6.43
2023-07-24T05:08:16.454Z,5.82
2023-07-24T05:10:43.382Z,5.93
2023-07-24T05:13:12.716Z,5.40
2023-07-24T05:15:41.241Z,5.80
2023-07-24T05:18:08.165Z,6.07
2023-07-24T05:20:34.995Z,5.45
2023-07-24T05:23:02.053Z,5.80
2023-07-24T05:25:28.978Z,5.25
2023-07-24T05:27:55.746Z,5.82
2023-07-24T05:30:23.031Z,5.25
2023-07-24T05:32:49.904Z,4.75
2023-07-24T05:35:18.660Z,5.13
2023-07-24T05:37:45.508Z,5.00
2023-07-24T05:40:12.658Z,5.60
2023-07-24T05:42:42.824Z,5.55
2023-07-24T05:45:09.983Z,6.03
2023-07-24T05:47:37.158Z,5.07
2023-07-24T05:50:04.179Z,5.32
2023-07-24T05:52:31.054Z,5.22
2023-07-24T05:54:57.980Z,5.72
2023-07-24T05:57:24.756Z,6.20
2023-07-24T05:59:54.954Z,6.40
2023-07-24T06:02:22.023Z,6.18
2023-07-24T06:04:48.886Z,6.68
2023-07-24T06:07:16.406Z,7.20
2023-07-24T06:09:43.451Z,6.50
2023-07-24T06:12:10.479Z,7.95
2023-07-24T06:14:37.445Z,7.53
2023-07-24T06:17:04.413Z,8.15
2023-07-24T06:19:31.308Z,8.63
2023-07-24T06:21:58.400Z,8.23
2023-07-24T06:24:25.435Z,7.95
2023-07-24T06:26:52.246Z,8.63
2023-07-24T06:29:19.233Z,7.97
2023-07-24T06:31:46.150Z,8.15
2023-07-24T06:34:12.954Z,8.00
2023-07-24T06:36:39.952Z,8.73
2023-07-24T06:39:06.940Z,8.70
2023-07-24T06:41:33.672Z,7.43
2023-07-24T06:44:01.337Z,7.30
2023-07-24T06:46:28.524Z,7.88
2023-07-24T06:48:57.517Z,6.30
2023-07-24T06:51:26.481Z,6.63
2023-07-24T06:53:53.353Z,7.13
2023-07-24T06:56:20.674Z,7.00
2023-07-24T06:58:47.750Z,7.10
2023-07-24T07:01:14.770Z,7.75
2023-07-24T07:03:41.751Z,7.68
2023-07-24T07:08:54.691Z,7.75
2023-07-24T07:11:22.108Z,8.20
2023-07-24T07:13:53.149Z,8.05
2023-07-24T07:16:20.685Z,7.10
2023-07-24T07:18:47.606Z,7.82
2023-07-24T07:21:14.526Z,8.38
2023-07-24T07:23:41.555Z,8.93
2023-07-24T07:26:08.347Z,8.55
2023-07-24T07:28:35.339Z,8.40
2023-07-24T07:31:02.077Z,9.48
2023-07-24T07:33:30.225Z,8.95
2023-07-24T07:35:59.473Z,9.07
2023-07-24T07:38:26.665Z,8.43
2023-07-24T07:40:53.475Z,8.32
2023-07-24T07:43:20.539Z,8.77
2023-07-24T07:45:47.641Z,8.73
2023-07-24T07:48:14.449Z,8.55
2023-07-24T07:50:41.223Z,8.88
2023-07-24T07:53:09.401Z,8.18
2023-07-24T07:55:36.425Z,7.38
2023-07-24T07:58:03.261Z,8.85
2023-07-24T08:00:30.042Z,7.90
2023-07-24T08:02:57.150Z,8.18
2023-07-24T08:05:24.117Z,7.90
2023-07-24T08:07:50.960Z,7.93
2023-07-24T08:10:18.133Z,8.48
2023-07-24T08:12:45.253Z,8.07
2023-07-24T08:15:12.787Z,8.45
2023-07-24T08:17:39.671Z,8.07
2023-07-24T08:20:07.155Z,8.30
2023-07-24T08:22:34.422Z,8.27
2023-07-24T08:25:02.640Z,8.02
2023-07-24T08:27:29.561Z,7.75
2023-07-24T08:29:56.327Z,7.82
2023-07-24T08:32:23.225Z,7.47
2023-07-24T08:34:50.343Z,7.32
2023-07-24T08:37:17.544Z,7.05
2023-07-24T08:39:44.455Z,6.65
2023-07-24T08:42:12.078Z,6.72
2023-07-24T08:44:39.032Z,6.72
2023-07-24T08:47:08.017Z,6.18
2023-07-24T08:49:35.896Z,6.80
2023-07-24T08:52:03.519Z,6.40
2023-07-24T08:54:31.480Z,6.45
2023-07-24T08:56:58.251Z,5.32
2023-07-24T08:59:25.444Z,6.15
2023-07-24T09:01:53.186Z,6.25
2023-07-24T09:04:23.013Z,5.97
2023-07-24T09:06:51.095Z,5.72
2023-07-24T09:09:18.424Z,5.85
2023-07-24T09:11:53.003Z,5.50
2023-07-24T09:14:27.754Z,5.15
2023-07-24T09:17:05.233Z,5.53
2023-07-24T09:19:32.436Z,5.07
2023-07-24T09:22:12.410Z,4.13
2023-07-24T09:24:39.620Z,4.10
2023-07-24T09:27:08.559Z,4.30
2023-07-24T09:29:36.477Z,3.80
2023-07-24T09:32:03.470Z,4.15
2023-07-24T09:34:30.283Z,4.28
2023-07-24T09:36:57.632Z,4.15
2023-07-24T09:39:29.803Z,4.45
2023-07-24T09:42:06.745Z,3.55
2023-07-24T09:44:33.886Z,4.22
2023-07-24T09:47:23.884Z,4.18
2023-07-24T09:49:48.791Z,5.50
2023-07-24T09:52:19.437Z,5.57
2023-07-24T09:54:55.259Z,6.70
